Terminal Aerodrome Forecast
Issued by NWS Detroit/Pontiac, MI

Home | Current Version | Previous Version | Text Only | Print | Product List | Glossary On
Versions: 1 2 3 4 5 6 7 8 9 10 11 12 13 14 15 16
000
FTUS43 KDTX 270500
TAFFNT
TAF
KFNT 270521Z 2706/2806 29005KT P6SM SCT005 SCT018
     FM270700 01005KT P6SM BKN012
     FM271400 35007KT P6SM SCT035 BKN120
     FM280000 02004KT P6SM SCT045=

USA.gov is the U.S. government's official web portal to all federal, state and local government web resources and services.